< < Back
Terminal Aerodrome Forecast


Current Version              Previous Versions:   1  2  3  4  5  6  7  8  9  

Terminal Aerodrome Forecast

633
FTUS44 KBMX 031737
TAFBHM
TAF
KBHM 031737Z 0318/0418 04008KT P6SM FEW250
     FM040200 00000KT P6SM SKC=

Latest METAR

994
SAUS70 KWBC 032100 RRE
MTRBHM
METAR KBHM 032053Z 01010G17KT 10SM SCT250 36/11 A2993 RMK AO2 SLP125
T03610106 58010


USA.gov is the U.S. government's official web portal to all federal, state and local government web resources and services.